sensor_id;sensor_type;location;lat;lon;timestamp;pressure;altitude;pressure_sealevel;temperature;humidity
6349;BME280;3207;42.648;23.406;2023-09-08T00:01:00;100514.81;;;22.53;62.56
6349;BME280;3207;42.648;23.406;2023-09-08T00:03:27;100520.78;;;22.55;62.47
6349;BME280;3207;42.648;23.406;2023-09-08T00:05:53;100515.47;;;22.55;62.61
6349;BME280;3207;42.648;23.406;2023-09-08T00:08:20;100511.97;;;22.54;62.71
6349;BME280;3207;42.648;23.406;2023-09-08T00:10:48;100510.66;;;22.50;62.84
6349;BME280;3207;42.648;23.406;2023-09-08T00:13:15;100517.16;;;22.48;63.00
6349;BME280;3207;42.648;23.406;2023-09-08T00:15:42;100509.34;;;22.46;63.05
6349;BME280;3207;42.648;23.406;2023-09-08T00:18:09;100504.06;;;22.38;63.34
6349;BME280;3207;42.648;23.406;2023-09-08T00:20:37;100507.88;;;22.44;63.33
6349;BME280;3207;42.648;23.406;2023-09-08T00:23:04;100516.22;;;22.41;63.58
6349;BME280;3207;42.648;23.406;2023-09-08T00:25:30;100508.09;;;22.34;63.69
6349;BME280;3207;42.648;23.406;2023-09-08T00:27:59;100513.44;;;22.34;63.77
6349;BME280;3207;42.648;23.406;2023-09-08T00:30:25;100516.09;;;22.26;64.10
6349;BME280;3207;42.648;23.406;2023-09-08T00:32:52;100507.50;;;22.24;64.19
6349;BME280;3207;42.648;23.406;2023-09-08T00:37:56;100502.00;;;22.17;64.64
6349;BME280;3207;42.648;23.406;2023-09-08T00:40:23;100504.56;;;22.11;65.23
6349;BME280;3207;42.648;23.406;2023-09-08T00:42:49;100497.72;;;22.08;64.99
6349;BME280;3207;42.648;23.406;2023-09-08T00:45:18;100498.41;;;22.10;65.24
6349;BME280;3207;42.648;23.406;2023-09-08T00:47:44;100496.91;;;22.08;65.39
6349;BME280;3207;42.648;23.406;2023-09-08T00:50:11;100493.06;;;22.10;65.49
6349;BME280;3207;42.648;23.406;2023-09-08T00:52:38;100498.91;;;22.06;65.77
6349;BME280;3207;42.648;23.406;2023-09-08T00:55:05;100488.41;;;22.12;65.67
6349;BME280;3207;42.648;23.406;2023-09-08T00:57:32;100480.59;;;22.11;65.63
6349;BME280;3207;42.648;23.406;2023-09-08T01:00:00;100483.91;;;22.13;65.86
6349;BME280;3207;42.648;23.406;2023-09-08T01:02:31;100486.19;;;22.16;65.74
6349;BME280;3207;42.648;23.406;2023-09-08T01:04:58;100489.22;;;22.13;65.99
6349;BME280;3207;42.648;23.406;2023-09-08T01:07:27;100488.56;;;22.11;65.95
6349;BME280;3207;42.648;23.406;2023-09-08T01:09:56;100491.09;;;22.04;66.03
6349;BME280;3207;42.648;23.406;2023-09-08T01:12:28;100491.44;;;22.01;66.26
6349;BME280;3207;42.648;23.406;2023-09-08T01:14:55;100487.28;;;21.99;66.37
6349;BME280;3207;42.648;23.406;2023-09-08T01:17:22;100496.13;;;21.99;66.39
6349;BME280;3207;42.648;23.406;2023-09-08T01:19:52;100496.13;;;21.91;66.99
6349;BME280;3207;42.648;23.406;2023-09-08T01:22:41;100490.47;;;21.86;67.19
6349;BME280;3207;42.648;23.406;2023-09-08T01:25:31;100486.50;;;21.82;67.46
6349;BME280;3207;42.648;23.406;2023-09-08T01:28:00;100484.47;;;21.84;67.25
6349;BME280;3207;42.648;23.406;2023-09-08T01:30:28;100485.69;;;21.81;67.55
6349;BME280;3207;42.648;23.406;2023-09-08T01:32:58;100480.03;;;21.76;67.79
6349;BME280;3207;42.648;23.406;2023-09-08T01:35:25;100482.69;;;21.76;67.76
6349;BME280;3207;42.648;23.406;2023-09-08T01:37:52;100484.84;;;21.73;67.78
6349;BME280;3207;42.648;23.406;2023-09-08T01:40:19;100491.88;;;21.66;68.00
6349;BME280;3207;42.648;23.406;2023-09-08T01:42:48;100487.88;;;21.62;68.04
6349;BME280;3207;42.648;23.406;2023-09-08T01:45:15;100494.06;;;21.54;68.14
6349;BME280;3207;42.648;23.406;2023-09-08T01:47:41;100487.91;;;21.53;68.22
6349;BME280;3207;42.648;23.406;2023-09-08T01:50:09;100495.75;;;21.47;68.33
6349;BME280;3207;42.648;23.406;2023-09-08T01:52:35;100490.44;;;21.47;68.31
6349;BME280;3207;42.648;23.406;2023-09-08T01:55:03;100489.28;;;21.41;68.61
6349;BME280;3207;42.648;23.406;2023-09-08T01:57:30;100487.31;;;21.35;68.55
6349;BME280;3207;42.648;23.406;2023-09-08T01:59:58;100490.09;;;21.42;68.52
6349;BME280;3207;42.648;23.406;2023-09-08T02:02:24;100488.28;;;21.42;68.83
6349;BME280;3207;42.648;23.406;2023-09-08T02:04:51;100484.66;;;21.35;68.82
6349;BME280;3207;42.648;23.406;2023-09-08T02:07:18;100494.28;;;21.36;68.79
6349;BME280;3207;42.648;23.406;2023-09-08T02:09:45;100490.28;;;21.32;68.73
6349;BME280;3207;42.648;23.406;2023-09-08T02:12:11;100487.47;;;21.34;68.77
6349;BME280;3207;42.648;23.406;2023-09-08T02:14:39;100495.59;;;21.32;68.73
6349;BME280;3207;42.648;23.406;2023-09-08T02:17:07;100488.78;;;21.30;68.70
6349;BME280;3207;42.648;23.406;2023-09-08T02:19:35;100488.63;;;21.31;68.58
6349;BME280;3207;42.648;23.406;2023-09-08T02:22:02;100490.81;;;21.28;68.54
6349;BME280;3207;42.648;23.406;2023-09-08T02:24:28;100488.47;;;21.25;68.71
6349;BME280;3207;42.648;23.406;2023-09-08T02:26:55;100489.81;;;21.21;68.82
6349;BME280;3207;42.648;23.406;2023-09-08T02:29:22;100487.47;;;21.17;69.13
6349;BME280;3207;42.648;23.406;2023-09-08T02:31:49;100493.81;;;21.25;68.81
6349;BME280;3207;42.648;23.406;2023-09-08T02:34:17;100474.84;;;21.19;68.88
6349;BME280;3207;42.648;23.406;2023-09-08T02:36:44;100476.53;;;21.29;68.81
6349;BME280;3207;42.648;23.406;2023-09-08T02:39:13;100486.50;;;21.27;68.94
6349;BME280;3207;42.648;23.406;2023-09-08T02:41:40;100484.66;;;21.27;68.65
6349;BME280;3207;42.648;23.406;2023-09-08T02:44:06;100481.66;;;21.30;68.91
6349;BME280;3207;42.648;23.406;2023-09-08T02:46:33;100477.66;;;21.34;68.79
6349;BME280;3207;42.648;23.406;2023-09-08T02:49:00;100470.00;;;21.39;68.38
6349;BME280;3207;42.648;23.406;2023-09-08T02:51:29;100481.13;;;21.43;68.34
6349;BME280;3207;42.648;23.406;2023-09-08T02:53:56;100483.94;;;21.41;68.20
6349;BME280;3207;42.648;23.406;2023-09-08T02:56:22;100476.81;;;21.34;68.28
6349;BME280;3207;42.648;23.406;2023-09-08T02:58:49;100473.16;;;21.35;68.14
6349;BME280;3207;42.648;23.406;2023-09-08T03:01:16;100472.84;;;21.30;68.33
6349;BME280;3207;42.648;23.406;2023-09-08T03:03:46;100481.84;;;21.29;68.44
6349;BME280;3207;42.648;23.406;2023-09-08T03:06:14;100476.84;;;21.26;68.45
6349;BME280;3207;42.648;23.406;2023-09-08T03:08:42;100477.34;;;21.21;68.66
6349;BME280;3207;42.648;23.406;2023-09-08T03:11:09;100478.84;;;21.24;68.49
6349;BME280;3207;42.648;23.406;2023-09-08T03:13:35;100480.66;;;21.23;68.62
6349;BME280;3207;42.648;23.406;2023-09-08T03:16:03;100471.88;;;21.23;68.73
6349;BME280;3207;42.648;23.406;2023-09-08T03:18:31;100476.53;;;21.29;68.71
6349;BME280;3207;42.648;23.406;2023-09-08T03:20:58;100483.16;;;21.25;68.58
6349;BME280;3207;42.648;23.406;2023-09-08T03:23:26;100479.81;;;21.31;68.41
6349;BME280;3207;42.648;23.406;2023-09-08T03:25:54;100485.16;;;21.23;68.97
6349;BME280;3207;42.648;23.406;2023-09-08T03:28:21;100481.84;;;21.21;68.69
6349;BME280;3207;42.648;23.406;2023-09-08T03:30:48;100482.00;;;21.19;68.62
6349;BME280;3207;42.648;23.406;2023-09-08T03:33:14;100485.13;;;21.14;68.60
6349;BME280;3207;42.648;23.406;2023-09-08T03:35:41;100485.81;;;21.16;68.57
6349;BME280;3207;42.648;23.406;2023-09-08T03:38:08;100478.81;;;21.15;68.47
6349;BME280;3207;42.648;23.406;2023-09-08T03:40:35;100478.00;;;21.15;68.49
6349;BME280;3207;42.648;23.406;2023-09-08T03:43:03;100482.47;;;21.14;68.49
6349;BME280;3207;42.648;23.406;2023-09-08T03:45:30;100481.16;;;21.10;68.69
6349;BME280;3207;42.648;23.406;2023-09-08T03:47:57;100481.00;;;21.04;68.83
6349;BME280;3207;42.648;23.406;2023-09-08T03:50:24;100486.81;;;21.07;68.69
6349;BME280;3207;42.648;23.406;2023-09-08T03:52:50;100497.09;;;21.02;69.07
6349;BME280;3207;42.648;23.406;2023-09-08T03:55:18;100490.13;;;21.09;68.75
6349;BME280;3207;42.648;23.406;2023-09-08T03:57:45;100499.28;;;21.15;68.59
6349;BME280;3207;42.648;23.406;2023-09-08T04:00:15;100498.75;;;21.11;68.70
6349;BME280;3207;42.648;23.406;2023-09-08T04:02:45;100493.97;;;21.07;68.76
6349;BME280;3207;42.648;23.406;2023-09-08T04:05:11;100500.44;;;21.04;69.04
6349;BME280;3207;42.648;23.406;2023-09-08T04:07:38;100498.44;;;21.14;68.49
6349;BME280;3207;42.648;23.406;2023-09-08T04:10:06;100494.13;;;21.05;68.71
6349;BME280;3207;42.648;23.406;2023-09-08T04:12:33;100499.09;;;21.00;68.67
6349;BME280;3207;42.648;23.406;2023-09-08T04:15:00;100503.75;;;20.98;68.88
6349;BME280;3207;42.648;23.406;2023-09-08T04:17:28;100507.06;;;21.00;69.13
6349;BME280;3207;42.648;23.406;2023-09-08T04:19:55;100507.75;;;20.94;69.33
6349;BME280;3207;42.648;23.406;2023-09-08T04:22:22;100502.44;;;20.94;69.38
6349;BME280;3207;42.648;23.406;2023-09-08T04:24:49;100503.91;;;20.89;69.52
6349;BME280;3207;42.648;23.406;2023-09-08T04:27:15;100498.94;;;20.86;69.99
6349;BME280;3207;42.648;23.406;2023-09-08T04:29:42;100499.13;;;20.84;69.93
6349;BME280;3207;42.648;23.406;2023-09-08T04:32:09;100497.78;;;20.88;70.11
6349;BME280;3207;42.648;23.406;2023-09-08T04:34:39;100498.28;;;20.92;69.96
6349;BME280;3207;42.648;23.406;2023-09-08T04:37:06;100499.44;;;20.89;70.42
6349;BME280;3207;42.648;23.406;2023-09-08T04:39:34;100504.09;;;20.95;70.16
6349;BME280;3207;42.648;23.406;2023-09-08T04:42:03;100511.25;;;21.03;69.89
6349;BME280;3207;42.648;23.406;2023-09-08T04:44:30;100503.78;;;21.06;69.88
6349;BME280;3207;42.648;23.406;2023-09-08T04:46:56;100500.75;;;21.09;69.45
6349;BME280;3207;42.648;23.406;2023-09-08T04:49:23;100497.25;;;21.09;69.66
6349;BME280;3207;42.648;23.406;2023-09-08T04:51:53;100495.09;;;21.12;69.55
6349;BME280;3207;42.648;23.406;2023-09-08T04:54:20;100500.09;;;21.15;69.32
6349;BME280;3207;42.648;23.406;2023-09-08T04:56:47;100506.75;;;21.19;69.02
6349;BME280;3207;42.648;23.406;2023-09-08T04:59:14;100498.97;;;21.26;68.79
6349;BME280;3207;42.648;23.406;2023-09-08T05:01:41;100505.44;;;21.24;68.99
6349;BME280;3207;42.648;23.406;2023-09-08T05:04:09;100508.09;;;21.24;69.10
6349;BME280;3207;42.648;23.406;2023-09-08T05:06:35;100512.25;;;21.26;68.91
6349;BME280;3207;42.648;23.406;2023-09-08T05:09:04;100519.91;;;21.29;68.57
6349;BME280;3207;42.648;23.406;2023-09-08T05:11:32;100512.41;;;21.25;69.00
6349;BME280;3207;42.648;23.406;2023-09-08T05:13:59;100507.75;;;21.35;68.16
6349;BME280;3207;42.648;23.406;2023-09-08T05:16:26;100516.06;;;21.48;68.16
6349;BME280;3207;42.648;23.406;2023-09-08T05:19:02;100518.19;;;21.52;67.95
6349;BME280;3207;42.648;23.406;2023-09-08T05:21:30;100527.47;;;21.65;67.55
6349;BME280;3207;42.648;23.406;2023-09-08T05:23:57;100522.66;;;21.68;67.34
6349;BME280;3207;42.648;23.406;2023-09-08T05:26:25;100516.97;;;21.79;67.03
6349;BME280;3207;42.648;23.406;2023-09-08T05:28:52;100522.75;;;21.91;66.77
6349;BME280;3207;42.648;23.406;2023-09-08T05:31:19;100523.41;;;22.01;66.54
6349;BME280;3207;42.648;23.406;2023-09-08T05:33:46;100523.31;;;22.17;66.07
6349;BME280;3207;42.648;23.406;2023-09-08T05:36:12;100533.06;;;22.33;65.38
6349;BME280;3207;42.648;23.406;2023-09-08T05:38:39;100530.38;;;22.41;65.11
6349;BME280;3207;42.648;23.406;2023-09-08T05:41:06;100530.41;;;22.64;64.45
6349;BME280;3207;42.648;23.406;2023-09-08T05:43:34;100535.19;;;22.77;63.75
6349;BME280;3207;42.648;23.406;2023-09-08T05:46:01;100532.69;;;22.98;63.12
6349;BME280;3207;42.648;23.406;2023-09-08T05:48:29;100529.50;;;23.17;62.34
6349;BME280;3207;42.648;23.406;2023-09-08T05:50:56;100541.16;;;23.39;61.64
6349;BME280;3207;42.648;23.406;2023-09-08T05:53:23;100539.91;;;23.64;60.60
6349;BME280;3207;42.648;23.406;2023-09-08T05:55:49;100535.09;;;24.19;59.12
6349;BME280;3207;42.648;23.406;2023-09-08T05:58:17;100543.22;;;25.46;55.03
6349;BME280;3207;42.648;23.406;2023-09-08T06:00:46;100518.75;;;26.99;49.80
6349;BME280;3207;42.648;23.406;2023-09-08T06:03:13;100538.41;;;28.93;44.43
6349;BME280;3207;42.648;23.406;2023-09-08T06:05:39;100547.31;;;30.41;41.01
6349;BME280;3207;42.648;23.406;2023-09-08T06:08:06;100554.06;;;31.80;37.57
6349;BME280;3207;42.648;23.406;2023-09-08T06:10:33;100553.44;;;32.98;34.91
6349;BME280;3207;42.648;23.406;2023-09-08T06:13:00;100557.16;;;33.97;33.19
6349;BME280;3207;42.648;23.406;2023-09-08T06:15:27;100562.28;;;34.91;31.08
6349;BME280;3207;42.648;23.406;2023-09-08T06:17:55;100568.03;;;35.64;30.22
6349;BME280;3207;42.648;23.406;2023-09-08T06:20:22;100567.22;;;36.15;29.32
6349;BME280;3207;42.648;23.406;2023-09-08T06:22:50;100565.53;;;36.82;28.68
6349;BME280;3207;42.648;23.406;2023-09-08T06:25:17;100570.19;;;37.07;27.68
6349;BME280;3207;42.648;23.406;2023-09-08T06:27:44;100577.81;;;37.30;27.53
6349;BME280;3207;42.648;23.406;2023-09-08T06:30:11;100582.16;;;37.56;27.11
6349;BME280;3207;42.648;23.406;2023-09-08T06:32:39;100572.25;;;37.91;26.71
6349;BME280;3207;42.648;23.406;2023-09-08T06:35:08;100580.72;;;38.49;26.07
6349;BME280;3207;42.648;23.406;2023-09-08T06:37:35;100577.19;;;38.92;25.16
6349;BME280;3207;42.648;23.406;2023-09-08T06:40:04;100578.59;;;39.24;25.13
6349;BME280;3207;42.648;23.406;2023-09-08T06:42:31;100584.78;;;39.63;24.77
6349;BME280;3207;42.648;23.406;2023-09-08T06:44:58;100589.03;;;40.22;23.86
6349;BME280;3207;42.648;23.406;2023-09-08T06:47:25;100584.22;;;40.56;23.00
6349;BME280;3207;42.648;23.406;2023-09-08T06:49:52;100585.75;;;41.00;23.14
6349;BME280;3207;42.648;23.406;2023-09-08T06:52:20;100573.16;;;41.45;22.36
6349;BME280;3207;42.648;23.406;2023-09-08T06:54:50;100574.63;;;41.84;22.19
6349;BME280;3207;42.648;23.406;2023-09-08T06:57:18;100577.16;;;42.08;21.83
6349;BME280;3207;42.648;23.406;2023-09-08T06:59:45;100582.81;;;42.52;21.36
6349;BME280;3207;42.648;23.406;2023-09-08T07:02:12;100582.72;;;43.02;20.94
6349;BME280;3207;42.648;23.406;2023-09-08T07:04:39;100587.97;;;43.34;20.72
6349;BME280;3207;42.648;23.406;2023-09-08T07:07:06;100589.81;;;43.78;20.29
6349;BME280;3207;42.648;23.406;2023-09-08T07:09:34;100590.75;;;44.13;20.08
6349;BME280;3207;42.648;23.406;2023-09-08T07:12:03;100594.84;;;44.50;19.58
6349;BME280;3207;42.648;23.406;2023-09-08T07:14:30;100592.75;;;44.73;19.36
6349;BME280;3207;42.648;23.406;2023-09-08T07:16:57;100598.94;;;44.88;19.58
6349;BME280;3207;42.648;23.406;2023-09-08T07:19:25;100598.25;;;45.08;18.74
6349;BME280;3207;42.648;23.406;2023-09-08T07:21:52;100595.91;;;45.36;18.56
6349;BME280;3207;42.648;23.406;2023-09-08T07:24:18;100588.34;;;45.71;18.24
6349;BME280;3207;42.648;23.406;2023-09-08T07:26:47;100596.06;;;45.86;18.37
6349;BME280;3207;42.648;23.406;2023-09-08T07:29:13;100590.72;;;46.10;17.74
6349;BME280;3207;42.648;23.406;2023-09-08T07:31:40;100585.59;;;46.30;17.67
6349;BME280;3207;42.648;23.406;2023-09-08T07:34:07;100594.81;;;46.54;17.44
6349;BME280;3207;42.648;23.406;2023-09-08T07:36:35;100588.38;;;46.71;16.83
6349;BME280;3207;42.648;23.406;2023-09-08T07:39:02;100590.16;;;46.88;17.22
6349;BME280;3207;42.648;23.406;2023-09-08T07:41:28;100589.69;;;47.31;16.38
6349;BME280;3207;42.648;23.406;2023-09-08T07:43:57;100599.44;;;47.37;16.38
6349;BME280;3207;42.648;23.406;2023-09-08T07:46:23;100596.13;;;47.68;16.22
6349;BME280;3207;42.648;23.406;2023-09-08T07:48:50;100600.28;;;48.11;15.44
6349;BME280;3207;42.648;23.406;2023-09-08T07:51:17;100594.88;;;48.54;15.17
6349;BME280;3207;42.648;23.406;2023-09-08T07:53:44;100605.94;;;48.66;15.07
6349;BME280;3207;42.648;23.406;2023-09-08T07:56:11;100604.34;;;48.93;15.00
6349;BME280;3207;42.648;23.406;2023-09-08T07:58:37;100607.25;;;49.12;14.38
6349;BME280;3207;42.648;23.406;2023-09-08T08:01:06;100602.50;;;49.13;14.64
6349;BME280;3207;42.648;23.406;2023-09-08T08:03:33;100602.81;;;48.96;15.05
6349;BME280;3207;42.648;23.406;2023-09-08T08:06:01;100606.84;;;48.98;15.16
6349;BME280;3207;42.648;23.406;2023-09-08T08:08:27;100609.66;;;49.14;14.88
6349;BME280;3207;42.648;23.406;2023-09-08T08:10:54;100609.69;;;49.30;14.58
6349;BME280;3207;42.648;23.406;2023-09-08T08:13:21;100608.53;;;49.31;14.78
6349;BME280;3207;42.648;23.406;2023-09-08T08:15:48;100608.00;;;49.41;14.55
6349;BME280;3207;42.648;23.406;2023-09-08T08:18:16;100602.53;;;49.76;14.36
6349;BME280;3207;42.648;23.406;2023-09-08T08:20:43;100596.56;;;50.09;14.00
6349;BME280;3207;42.648;23.406;2023-09-08T08:23:10;100604.47;;;50.42;13.93
6349;BME280;3207;42.648;23.406;2023-09-08T08:25:36;100593.03;;;50.47;14.20
6349;BME280;3207;42.648;23.406;2023-09-08T08:28:04;100601.56;;;50.73;13.51
6349;BME280;3207;42.648;23.406;2023-09-08T08:30:31;100595.09;;;50.88;13.55
6349;BME280;3207;42.648;23.406;2023-09-08T08:32:58;100605.59;;;51.18;13.63
6349;BME280;3207;42.648;23.406;2023-09-08T08:35:26;100594.97;;;51.23;13.66
6349;BME280;3207;42.648;23.406;2023-09-08T08:37:53;100601.59;;;51.38;13.43
6349;BME280;3207;42.648;23.406;2023-09-08T08:40:20;100605.94;;;51.36;13.10
6349;BME280;3207;42.648;23.406;2023-09-08T08:42:54;100603.88;;;51.33;13.40
6349;BME280;3207;42.648;23.406;2023-09-08T08:45:23;100611.06;;;51.79;13.42
6349;BME280;3207;42.648;23.406;2023-09-08T08:47:50;100609.16;;;51.87;12.95
6349;BME280;3207;42.648;23.406;2023-09-08T08:50:17;100602.34;;;51.58;13.14
6349;BME280;3207;42.648;23.406;2023-09-08T08:52:46;100583.94;;;51.31;13.37
6349;BME280;3207;42.648;23.406;2023-09-08T08:55:13;100590.75;;;51.56;13.07
6349;BME280;3207;42.648;23.406;2023-09-08T08:57:41;100595.69;;;51.92;13.05
6349;BME280;3207;42.648;23.406;2023-09-08T09:00:10;100594.06;;;51.88;12.67
6349;BME280;3207;42.648;23.406;2023-09-08T09:02:39;100593.78;;;52.23;12.96
6349;BME280;3207;42.648;23.406;2023-09-08T09:05:07;100605.56;;;51.86;12.73
6349;BME280;3207;42.648;23.406;2023-09-08T09:07:34;100597.16;;;52.09;12.87
6349;BME280;3207;42.648;23.406;2023-09-08T09:10:05;100601.13;;;52.08;12.83
6349;BME280;3207;42.648;23.406;2023-09-08T09:12:32;100595.31;;;51.68;12.87
6349;BME280;3207;42.648;23.406;2023-09-08T09:15:00;100595.16;;;51.83;12.64
6349;BME280;3207;42.648;23.406;2023-09-08T09:17:28;100595.66;;;51.89;12.91
6349;BME280;3207;42.648;23.406;2023-09-08T09:20:12;100586.28;;;52.01;12.68
6349;BME280;3207;42.648;23.406;2023-09-08T09:22:39;100590.03;;;52.15;12.65
6349;BME280;3207;42.648;23.406;2023-09-08T09:25:08;100588.34;;;52.34;12.91
6349;BME280;3207;42.648;23.406;2023-09-08T09:27:36;100587.72;;;52.51;12.92
6349;BME280;3207;42.648;23.406;2023-09-08T09:30:07;100582.84;;;52.78;12.73
6349;BME280;3207;42.648;23.406;2023-09-08T09:32:34;100586.00;;;52.73;12.61
6349;BME280;3207;42.648;23.406;2023-09-08T09:35:01;100584.13;;;52.84;12.08
6349;BME280;3207;42.648;23.406;2023-09-08T09:37:29;100576.63;;;53.32;12.78
6349;BME280;3207;42.648;23.406;2023-09-08T09:39:56;100580.72;;;53.45;11.80
6349;BME280;3207;42.648;23.406;2023-09-08T09:42:27;100581.91;;;53.44;11.91
6349;BME280;3207;42.648;23.406;2023-09-08T09:44:54;100580.13;;;53.73;12.00
6349;BME280;3207;42.648;23.406;2023-09-08T09:47:22;100580.50;;;53.68;12.11
6349;BME280;3207;42.648;23.406;2023-09-08T09:49:49;100581.94;;;54.02;11.33
6349;BME280;3207;42.648;23.406;2023-09-08T09:52:22;100578.75;;;54.07;11.51
6349;BME280;3207;42.648;23.406;2023-09-08T09:54:52;100568.59;;;54.68;11.38
6349;BME280;3207;42.648;23.406;2023-09-08T09:57:21;100573.44;;;54.75;10.66
6349;BME280;3207;42.648;23.406;2023-09-08T09:59:51;100570.28;;;55.05;10.53
6349;BME280;3207;42.648;23.406;2023-09-08T10:02:19;100572.56;;;54.50;10.28
6349;BME280;3207;42.648;23.406;2023-09-08T10:04:48;100574.28;;;53.38;11.37
6349;BME280;3207;42.648;23.406;2023-09-08T10:07:16;100562.31;;;52.59;11.73
6349;BME280;3207;42.648;23.406;2023-09-08T10:09:43;100557.56;;;52.63;11.86
6349;BME280;3207;42.648;23.406;2023-09-08T10:12:13;100554.00;;;52.33;11.38
6349;BME280;3207;42.648;23.406;2023-09-08T10:14:41;100560.06;;;52.09;11.57
6349;BME280;3207;42.648;23.406;2023-09-08T10:17:15;100558.75;;;52.62;11.79
6349;BME280;3207;42.648;23.406;2023-09-08T10:19:44;100560.91;;;52.43;10.86
6349;BME280;3207;42.648;23.406;2023-09-08T10:22:20;100557.72;;;51.58;11.75
6349;BME280;3207;42.648;23.406;2023-09-08T10:24:54;100551.72;;;51.33;11.99
6349;BME280;3207;42.648;23.406;2023-09-08T10:27:22;100556.97;;;51.15;12.01
6349;BME280;3207;42.648;23.406;2023-09-08T10:29:50;100548.97;;;50.91;12.33
6349;BME280;3207;42.648;23.406;2023-09-08T10:32:20;100549.25;;;50.86;12.21
6349;BME280;3207;42.648;23.406;2023-09-08T10:34:47;100549.72;;;50.69;12.37
6349;BME280;3207;42.648;23.406;2023-09-08T10:37:22;100543.13;;;50.19;12.67
6349;BME280;3207;42.648;23.406;2023-09-08T10:39:50;100547.56;;;50.04;12.72
6349;BME280;3207;42.648;23.406;2023-09-08T10:42:24;100545.69;;;50.47;13.04
6349;BME280;3207;42.648;23.406;2023-09-08T10:44:58;100532.06;;;50.42;12.63
6349;BME280;3207;42.648;23.406;2023-09-08T10:47:33;100537.72;;;49.91;13.30
6349;BME280;3207;42.648;23.406;2023-09-08T10:50:06;100527.84;;;49.59;13.25
6349;BME280;3207;42.648;23.406;2023-09-08T10:52:34;100523.66;;;48.74;14.10
6349;BME280;3207;42.648;23.406;2023-09-08T10:55:01;100521.44;;;48.52;14.09
6349;BME280;3207;42.648;23.406;2023-09-08T10:57:28;100518.09;;;47.94;14.20
6349;BME280;3207;42.648;23.406;2023-09-08T11:00:00;100512.38;;;47.50;14.87
6349;BME280;3207;42.648;23.406;2023-09-08T11:02:36;100510.53;;;47.42;15.13
6349;BME280;3207;42.648;23.406;2023-09-08T11:05:06;100504.97;;;47.66;14.91
6349;BME280;3207;42.648;23.406;2023-09-08T11:07:33;100505.72;;;47.06;14.95
6349;BME280;3207;42.648;23.406;2023-09-08T11:10:00;100493.84;;;47.06;14.78
6349;BME280;3207;42.648;23.406;2023-09-08T11:12:27;100495.84;;;47.42;15.12
6349;BME280;3207;42.648;23.406;2023-09-08T11:14:54;100499.53;;;47.58;15.40
6349;BME280;3207;42.648;23.406;2023-09-08T11:17:25;100489.50;;;47.41;15.69
6349;BME280;3207;42.648;23.406;2023-09-08T11:19:54;100486.00;;;47.32;15.75
6349;BME280;3207;42.648;23.406;2023-09-08T11:22:22;100495.88;;;46.96;15.95
6349;BME280;3207;42.648;23.406;2023-09-08T11:24:50;100493.66;;;47.35;15.16
6349;BME280;3207;42.648;23.406;2023-09-08T11:27:18;100484.88;;;47.45;15.50
6349;BME280;3207;42.648;23.406;2023-09-08T11:29:45;100492.75;;;48.08;14.91
6349;BME280;3207;42.648;23.406;2023-09-08T11:32:12;100486.38;;;47.67;14.57
6349;BME280;3207;42.648;23.406;2023-09-08T11:34:39;100492.66;;;46.08;15.40
6349;BME280;3207;42.648;23.406;2023-09-08T11:37:09;100491.41;;;45.00;15.65
6349;BME280;3207;42.648;23.406;2023-09-08T11:39:38;100488.81;;;43.91;17.39
6349;BME280;3207;42.648;23.406;2023-09-08T11:42:06;100476.94;;;43.25;18.17
6349;BME280;3207;42.648;23.406;2023-09-08T11:44:34;100470.22;;;41.97;19.45
6349;BME280;3207;42.648;23.406;2023-09-08T11:47:02;100470.44;;;40.54;21.17
6349;BME280;3207;42.648;23.406;2023-09-08T11:49:34;100455.47;;;38.61;22.58
6349;BME280;3207;42.648;23.406;2023-09-08T11:52:01;100456.91;;;37.50;23.67
6349;BME280;3207;42.648;23.406;2023-09-08T11:54:31;100458.91;;;36.63;25.70
6349;BME280;3207;42.648;23.406;2023-09-08T11:56:59;100457.69;;;36.03;25.88
6349;BME280;3207;42.648;23.406;2023-09-08T11:59:27;100461.97;;;35.74;24.83
6349;BME280;3207;42.648;23.406;2023-09-08T12:01:55;100458.31;;;35.48;25.62
6349;BME280;3207;42.648;23.406;2023-09-08T12:04:22;100458.53;;;35.41;26.66
6349;BME280;3207;42.648;23.406;2023-09-08T12:06:52;100445.13;;;35.30;26.87
6349;BME280;3207;42.648;23.406;2023-09-08T12:09:21;100444.22;;;35.19;27.17
6349;BME280;3207;42.648;23.406;2023-09-08T12:11:49;100442.78;;;35.01;27.32
6349;BME280;3207;42.648;23.406;2023-09-08T12:14:16;100439.72;;;34.93;26.99
6349;BME280;3207;42.648;23.406;2023-09-08T12:16:43;100441.38;;;34.94;25.92
6349;BME280;3207;42.648;23.406;2023-09-08T12:19:29;100435.59;;;34.53;26.50
6349;BME280;3207;42.648;23.406;2023-09-08T12:21:58;100434.88;;;34.36;26.71
6349;BME280;3207;42.648;23.406;2023-09-08T12:24:55;100424.59;;;34.38;27.21
6349;BME280;3207;42.648;23.406;2023-09-08T12:27:24;100419.91;;;34.65;26.52
6349;BME280;3207;42.648;23.406;2023-09-08T12:29:55;100422.56;;;34.87;27.02
6349;BME280;3207;42.648;23.406;2023-09-08T12:32:22;100422.59;;;34.92;26.70
6349;BME280;3207;42.648;23.406;2023-09-08T12:34:50;100420.59;;;34.77;25.68
6349;BME280;3207;42.648;23.406;2023-09-08T12:37:20;100415.16;;;34.77;26.47
6349;BME280;3207;42.648;23.406;2023-09-08T12:39:47;100401.44;;;34.62;27.31
6349;BME280;3207;42.648;23.406;2023-09-08T12:42:14;100403.28;;;34.57;27.50
6349;BME280;3207;42.648;23.406;2023-09-08T12:44:43;100396.53;;;34.59;26.83
6349;BME280;3207;42.648;23.406;2023-09-08T12:47:10;100400.22;;;34.80;27.32
6349;BME280;3207;42.648;23.406;2023-09-08T12:49:39;100399.16;;;34.86;26.14
6349;BME280;3207;42.648;23.406;2023-09-08T12:52:06;100401.88;;;34.86;25.88
6349;BME280;3207;42.648;23.406;2023-09-08T12:54:33;100397.34;;;34.97;26.07
6349;BME280;3207;42.648;23.406;2023-09-08T12:57:00;100400.09;;;35.02;26.07
6349;BME280;3207;42.648;23.406;2023-09-08T12:59:27;100391.16;;;35.06;26.09
6349;BME280;3207;42.648;23.406;2023-09-08T13:01:56;100389.28;;;35.12;25.83
6349;BME280;3207;42.648;23.406;2023-09-08T13:04:23;100388.16;;;35.08;25.96
6349;BME280;3207;42.648;23.406;2023-09-08T13:06:50;100387.38;;;34.70;26.30